createdAt,value
2022-08-17T00:00:43.263Z,1006.34
2022-08-17T00:01:29.647Z,1006.30
2022-08-17T00:02:29.645Z,1006.31
2022-08-17T00:03:29.509Z,1006.26
2022-08-17T00:04:29.514Z,1006.25
2022-08-17T00:05:29.529Z,1006.27
2022-08-17T00:06:29.510Z,1006.30
2022-08-17T00:07:29.517Z,1006.29
2022-08-17T00:08:29.441Z,1006.21
2022-08-17T00:09:29.448Z,1006.28
2022-08-17T00:10:29.446Z,1006.31
2022-08-17T00:11:29.424Z,1006.32
2022-08-17T00:12:42.721Z,1006.30
2022-08-17T00:13:29.377Z,1006.28
2022-08-17T00:14:29.371Z,1006.29
2022-08-17T00:15:29.386Z,1006.27
2022-08-17T00:16:52.613Z,1006.22
2022-08-17T00:17:29.390Z,1006.24
2022-08-17T00:18:53.745Z,1006.18
2022-08-17T00:19:29.306Z,1006.15
2022-08-17T00:20:30.480Z,1006.14
2022-08-17T00:22:28.675Z,1006.15
2022-08-17T00:22:34.586Z,1006.10
2022-08-17T00:23:29.300Z,1006.10
2022-08-17T00:24:29.255Z,1006.06
2022-08-17T00:25:29.249Z,1006.03
2022-08-17T00:26:43.998Z,1006.02
2022-08-17T00:27:29.246Z,1006.01
2022-08-17T00:28:29.258Z,1005.98
2022-08-17T00:29:29.186Z,1005.94
2022-08-17T00:30:29.176Z,1005.99
2022-08-17T00:31:29.177Z,1005.99
2022-08-17T00:33:23.148Z,1005.99
2022-08-17T00:33:29.536Z,1006.01
2022-08-17T00:34:29.153Z,1006.00
2022-08-17T00:35:29.121Z,1006.03
2022-08-17T00:36:29.116Z,1006.01
2022-08-17T00:37:29.107Z,1006.00
2022-08-17T00:38:29.114Z,1005.97
2022-08-17T00:39:29.091Z,1005.96
2022-08-17T00:40:40.671Z,1005.95
2022-08-17T00:41:29.050Z,1005.96
2022-08-17T00:42:31.160Z,1006.00
2022-08-17T00:43:29.055Z,1005.97
2022-08-17T00:44:30.340Z,1005.99
2022-08-17T00:45:29.051Z,1006.00
2022-08-17T00:46:28.985Z,1005.97
2022-08-17T00:47:28.992Z,1006.00
2022-08-17T00:48:30.591Z,1006.04
2022-08-17T00:49:28.984Z,1006.01
2022-08-17T00:50:28.960Z,1006.01
2022-08-17T00:51:28.921Z,1006.02
2022-08-17T00:52:28.929Z,1006.00
2022-08-17T00:53:28.926Z,1006.01
2022-08-17T00:54:28.923Z,1006.04
2022-08-17T00:55:28.889Z,1006.10
2022-08-17T00:56:28.896Z,1006.07
2022-08-17T00:57:28.854Z,1006.06
2022-08-17T00:58:35.939Z,1006.07
2022-08-17T00:59:28.844Z,1006.08
2022-08-17T01:00:28.885Z,1006.08
2022-08-17T01:01:28.882Z,1006.09
2022-08-17T01:02:28.882Z,1006.12
2022-08-17T01:03:28.791Z,1006.10
2022-08-17T01:04:28.787Z,1006.15
2022-08-17T01:05:28.771Z,1006.10
2022-08-17T01:06:28.767Z,1006.12
2022-08-17T01:07:28.735Z,1006.12
2022-08-17T01:08:28.729Z,1006.12
2022-08-17T01:09:28.732Z,1006.14
2022-08-17T01:11:00.003Z,1006.13
2022-08-17T01:11:28.738Z,1006.11
2022-08-17T01:12:28.735Z,1006.12
2022-08-17T01:13:28.656Z,1006.09
2022-08-17T01:14:28.664Z,1006.08
2022-08-17T01:15:28.659Z,1006.10
2022-08-17T01:16:28.637Z,1006.09
2022-08-17T01:17:28.658Z,1006.04
2022-08-17T01:18:28.597Z,1006.03
2022-08-17T01:19:28.600Z,1006.04
2022-08-17T01:20:28.597Z,1006.02
2022-08-17T01:21:28.587Z,1006.02
2022-08-17T01:22:28.576Z,1006.01
2022-08-17T01:23:28.544Z,1005.98
2022-08-17T01:24:28.521Z,1005.98
2022-08-17T01:25:28.528Z,1006.01
2022-08-17T01:26:28.515Z,1005.96
2022-08-17T01:27:28.527Z,1005.97
2022-08-17T01:28:52.618Z,1005.98
2022-08-17T01:29:28.472Z,1005.94
2022-08-17T01:30:58.000Z,1005.96
2022-08-17T01:31:28.471Z,1005.96
2022-08-17T01:32:28.454Z,1005.95
2022-08-17T01:33:28.446Z,1005.93
2022-08-17T01:34:38.045Z,1005.88
2022-08-17T01:35:28.393Z,1005.87
2022-08-17T01:36:28.480Z,1005.87
2022-08-17T01:37:28.420Z,1005.81
2022-08-17T01:38:29.356Z,1005.85
2022-08-17T01:39:28.441Z,1005.89
2022-08-17T01:40:28.334Z,1005.82
2022-08-17T01:41:28.336Z,1005.83
2022-08-17T01:42:28.337Z,1005.85
2022-08-17T01:43:28.304Z,1005.81
2022-08-17T01:44:28.312Z,1005.86
2022-08-17T01:45:28.303Z,1005.83
2022-08-17T01:46:28.263Z,1005.83
2022-08-17T01:47:28.269Z,1005.79
2022-08-17T01:48:28.277Z,1005.81
2022-08-17T01:49:28.251Z,1005.82
2022-08-17T01:50:28.251Z,1005.80
2022-08-17T01:51:28.203Z,1005.79
2022-08-17T01:52:28.201Z,1005.74
2022-08-17T01:53:28.222Z,1005.75
2022-08-17T01:54:28.177Z,1005.72
2022-08-17T01:55:28.683Z,1005.72
2022-08-17T01:56:28.201Z,1005.68
2022-08-17T01:57:28.137Z,1005.70
2022-08-17T01:58:28.144Z,1005.69
2022-08-17T01:59:28.129Z,1005.65
2022-08-17T02:00:28.708Z,1005.63
2022-08-17T02:01:28.167Z,1005.61
2022-08-17T02:02:31.183Z,1005.61
2022-08-17T02:03:28.076Z,1005.64
2022-08-17T02:04:28.081Z,1005.61
2022-08-17T02:05:28.062Z,1005.62
2022-08-17T02:06:28.499Z,1005.65
2022-08-17T02:07:28.050Z,1005.63
2022-08-17T02:08:38.873Z,1005.63
2022-08-17T02:09:29.776Z,1005.63
2022-08-17T02:10:33.722Z,1005.60
2022-08-17T02:11:28.687Z,1005.60
2022-08-17T02:12:38.278Z,1005.63
2022-08-17T02:13:27.936Z,1005.61
2022-08-17T02:14:27.944Z,1005.63
2022-08-17T02:15:27.937Z,1005.58
2022-08-17T02:16:27.930Z,1005.54
2022-08-17T02:17:27.981Z,1005.56
2022-08-17T02:18:27.875Z,1005.51
2022-08-17T02:19:28.699Z,1005.49
2022-08-17T02:20:36.432Z,1005.50
2022-08-17T02:21:27.895Z,1005.48
2022-08-17T02:22:28.692Z,1005.44
2022-08-17T02:23:27.814Z,1005.44
2022-08-17T02:25:00.619Z,1005.50
2022-08-17T02:25:27.818Z,1005.44
2022-08-17T02:26:27.817Z,1005.47
2022-08-17T02:27:27.795Z,1005.51
2022-08-17T02:28:27.822Z,1005.48
2022-08-17T02:29:27.740Z,1005.51
2022-08-17T02:31:00.719Z,1005.45
2022-08-17T02:31:27.756Z,1005.48
2022-08-17T02:32:28.758Z,1005.46
2022-08-17T02:33:42.474Z,1005.47
2022-08-17T02:34:27.684Z,1005.49
2022-08-17T02:35:27.777Z,1005.50
2022-08-17T02:36:27.768Z,1005.48
2022-08-17T02:37:27.669Z,1005.46
2022-08-17T02:38:27.649Z,1005.45
2022-08-17T02:39:27.741Z,1005.43
2022-08-17T02:40:32.844Z,1005.42
2022-08-17T02:41:27.614Z,1005.39
2022-08-17T02:42:27.608Z,1005.39
2022-08-17T02:43:27.608Z,1005.41
2022-08-17T02:44:39.268Z,1005.40
2022-08-17T02:45:27.554Z,1005.42
2022-08-17T02:46:27.571Z,1005.39
2022-08-17T02:47:27.557Z,1005.38
2022-08-17T02:48:30.665Z,1005.40
2022-08-17T02:49:27.555Z,1005.37
2022-08-17T02:50:27.487Z,1005.40
2022-08-17T02:51:27.477Z,1005.38
2022-08-17T02:52:42.288Z,1005.38
2022-08-17T02:53:27.481Z,1005.36
2022-08-17T02:54:41.632Z,1005.36
2022-08-17T02:55:27.494Z,1005.34
2022-08-17T02:56:27.417Z,1005.34
2022-08-17T02:57:27.425Z,1005.39
2022-08-17T02:58:35.011Z,1005.39
2022-08-17T02:59:27.412Z,1005.41
2022-08-17T03:00:27.373Z,1005.40
2022-08-17T03:01:27.504Z,1005.38
2022-08-17T03:02:27.348Z,1005.42
2022-08-17T03:03:27.345Z,1005.41
2022-08-17T03:04:27.367Z,1005.44
2022-08-17T03:05:28.201Z,1005.43
2022-08-17T03:06:27.299Z,1005.40
2022-08-17T03:07:27.284Z,1005.39
2022-08-17T03:08:27.289Z,1005.34
2022-08-17T03:09:27.286Z,1005.38
2022-08-17T03:10:27.247Z,1005.35
2022-08-17T03:11:27.281Z,1005.37
2022-08-17T03:12:27.222Z,1005.36
2022-08-17T03:13:27.230Z,1005.36
2022-08-17T03:14:27.223Z,1005.30
2022-08-17T03:15:27.209Z,1005.30
2022-08-17T03:16:27.752Z,1005.36
2022-08-17T03:17:27.233Z,1005.29
2022-08-17T03:18:27.154Z,1005.28
2022-08-17T03:19:27.158Z,1005.29
2022-08-17T03:20:27.171Z,1005.27
2022-08-17T03:21:27.145Z,1005.30
2022-08-17T03:22:36.675Z,1005.29
2022-08-17T03:23:27.224Z,1005.30
2022-08-17T03:24:28.937Z,1005.27
2022-08-17T03:25:27.093Z,1005.29
2022-08-17T03:26:29.804Z,1005.25
2022-08-17T03:27:27.071Z,1005.25
2022-08-17T03:28:27.029Z,1005.22
2022-08-17T03:29:27.110Z,1005.27
2022-08-17T03:30:27.030Z,1005.26
2022-08-17T03:31:27.007Z,1005.26
2022-08-17T03:32:26.989Z,1005.24
2022-08-17T03:33:26.976Z,1005.24
2022-08-17T03:34:26.955Z,1005.23
2022-08-17T03:35:26.962Z,1005.24
2022-08-17T03:36:26.947Z,1005.27
2022-08-17T03:37:26.920Z,1005.26
2022-08-17T03:38:26.905Z,1005.25
2022-08-17T03:39:26.927Z,1005.28
2022-08-17T03:40:55.579Z,1005.27
2022-08-17T03:41:26.885Z,1005.26
2022-08-17T03:42:31.251Z,1005.27
2022-08-17T03:43:26.911Z,1005.28
2022-08-17T03:44:26.849Z,1005.25
2022-08-17T03:45:26.827Z,1005.24
2022-08-17T03:46:27.984Z,1005.22
2022-08-17T03:47:26.839Z,1005.30
2022-08-17T03:48:27.759Z,1005.28
2022-08-17T03:49:26.772Z,1005.33
2022-08-17T03:50:26.756Z,1005.30
2022-08-17T03:51:26.764Z,1005.31
2022-08-17T03:52:26.773Z,1005.31
2022-08-17T03:53:26.755Z,1005.29
2022-08-17T03:54:26.705Z,1005.26
2022-08-17T03:55:35.958Z,1005.31
2022-08-17T03:56:26.695Z,1005.26
2022-08-17T03:57:26.715Z,1005.31
2022-08-17T03:58:26.699Z,1005.31
2022-08-17T03:59:27.233Z,1005.29
2022-08-17T04:00:26.647Z,1005.31
2022-08-17T04:01:26.696Z,1005.29
2022-08-17T04:02:26.639Z,1005.31
2022-08-17T04:03:26.627Z,1005.30
2022-08-17T04:04:27.953Z,1005.29
2022-08-17T04:05:26.574Z,1005.30
2022-08-17T04:06:26.583Z,1005.34
2022-08-17T04:07:26.566Z,1005.35
2022-08-17T04:08:26.557Z,1005.34
2022-08-17T04:09:26.527Z,1005.34
2022-08-17T04:10:26.586Z,1005.32
2022-08-17T04:11:26.539Z,1005.32
2022-08-17T04:12:26.569Z,1005.33
2022-08-17T04:13:26.504Z,1005.34
2022-08-17T04:14:26.494Z,1005.34
2022-08-17T04:15:26.488Z,1005.35
2022-08-17T04:16:26.449Z,1005.33
2022-08-17T04:17:26.460Z,1005.34
2022-08-17T04:18:26.439Z,1005.41
2022-08-17T04:19:26.429Z,1005.41
2022-08-17T04:20:26.397Z,1005.42
2022-08-17T04:21:26.387Z,1005.41
2022-08-17T04:22:32.446Z,1005.42
2022-08-17T04:23:26.368Z,1005.42
2022-08-17T04:24:26.383Z,1005.42
2022-08-17T04:25:26.371Z,1005.45
2022-08-17T04:26:52.288Z,1005.44
2022-08-17T04:27:26.319Z,1005.46
2022-08-17T04:28:26.307Z,1005.45
2022-08-17T04:29:26.311Z,1005.44
2022-08-17T04:30:26.286Z,1005.45
2022-08-17T04:31:26.267Z,1005.42
2022-08-17T04:33:04.182Z,1005.38
2022-08-17T04:33:26.262Z,1005.37
2022-08-17T04:34:26.237Z,1005.33
2022-08-17T04:35:26.249Z,1005.33
2022-08-17T04:36:26.238Z,1005.36
2022-08-17T04:37:26.765Z,1005.34
2022-08-17T04:38:26.184Z,1005.33
2022-08-17T04:39:26.206Z,1005.33
2022-08-17T04:40:27.388Z,1005.30
2022-08-17T04:41:26.230Z,1005.31
2022-08-17T04:42:26.142Z,1005.30
2022-08-17T04:43:26.132Z,1005.30
2022-08-17T04:44:37.217Z,1005.29
2022-08-17T04:45:26.118Z,1005.30
2022-08-17T04:46:26.123Z,1005.29
2022-08-17T04:47:26.171Z,1005.27
2022-08-17T04:48:34.715Z,1005.28
2022-08-17T04:49:26.074Z,1005.29
2022-08-17T04:50:26.061Z,1005.29
2022-08-17T04:51:26.047Z,1005.30
2022-08-17T04:52:29.784Z,1005.31
2022-08-17T04:53:26.148Z,1005.26
2022-08-17T04:54:26.056Z,1005.31
2022-08-17T04:55:26.019Z,1005.27
2022-08-17T04:56:26.074Z,1005.29
2022-08-17T04:57:25.981Z,1005.26
2022-08-17T04:58:25.974Z,1005.24
2022-08-17T04:59:26.769Z,1005.21
2022-08-17T05:00:25.954Z,1005.22
2022-08-17T05:01:25.973Z,1005.24
2022-08-17T05:02:25.918Z,1005.24
2022-08-17T05:03:25.909Z,1005.20
2022-08-17T05:04:35.166Z,1005.25
2022-08-17T05:05:25.865Z,1005.23
2022-08-17T05:06:25.872Z,1005.24
2022-08-17T05:07:29.593Z,1005.24
2022-08-17T05:08:25.859Z,1005.25
2022-08-17T05:09:25.865Z,1005.23
2022-08-17T05:10:26.791Z,1005.23
2022-08-17T05:11:25.817Z,1005.29
2022-08-17T05:12:25.791Z,1005.28
2022-08-17T05:13:25.790Z,1005.28
2022-08-17T05:14:32.456Z,1005.30
2022-08-17T05:15:25.846Z,1005.31
2022-08-17T05:16:25.834Z,1005.27
2022-08-17T05:17:25.843Z,1005.31
2022-08-17T05:18:25.844Z,1005.31
2022-08-17T05:19:25.841Z,1005.33
2022-08-17T05:20:25.864Z,1005.27
2022-08-17T05:21:25.684Z,1005.31
2022-08-17T05:22:25.670Z,1005.33
2022-08-17T05:23:25.664Z,1005.31
2022-08-17T05:24:42.489Z,1005.33
2022-08-17T05:25:25.858Z,1005.32
2022-08-17T05:26:27.400Z,1005.40
2022-08-17T05:27:27.910Z,1005.33
2022-08-17T05:28:27.349Z,1005.34
2022-08-17T05:29:35.158Z,1005.36
2022-08-17T05:30:25.601Z,1005.36
2022-08-17T05:31:25.587Z,1005.33
2022-08-17T05:32:39.362Z,1005.29
2022-08-17T05:33:25.565Z,1005.34
2022-08-17T05:34:25.546Z,1005.31
2022-08-17T05:35:25.532Z,1005.27
2022-08-17T05:36:43.385Z,1005.30
2022-08-17T05:37:25.529Z,1005.26
2022-08-17T05:38:25.494Z,1005.24
2022-08-17T05:39:25.612Z,1005.30
2022-08-17T05:40:26.207Z,1005.27
2022-08-17T05:41:25.471Z,1005.32
2022-08-17T05:42:25.473Z,1005.33
2022-08-17T05:43:25.472Z,1005.30
2022-08-17T05:44:25.433Z,1005.31
2022-08-17T05:45:39.929Z,1005.27
2022-08-17T05:46:25.413Z,1005.28
2022-08-17T05:47:25.410Z,1005.29
2022-08-17T05:48:39.663Z,1005.30
2022-08-17T05:49:25.411Z,1005.30
2022-08-17T05:50:27.203Z,1005.34
2022-08-17T05:51:25.356Z,1005.34
2022-08-17T05:52:25.351Z,1005.35
2022-08-17T05:53:25.343Z,1005.35
2022-08-17T05:54:25.355Z,1005.34
2022-08-17T05:55:25.344Z,1005.31
2022-08-17T05:56:30.324Z,1005.29
2022-08-17T05:57:25.313Z,1005.31
2022-08-17T05:58:25.289Z,1005.23
2022-08-17T05:59:25.291Z,1005.27
2022-08-17T06:00:30.295Z,1005.26
2022-08-17T06:01:25.355Z,1005.29
2022-08-17T06:02:25.249Z,1005.31
2022-08-17T06:03:25.250Z,1005.29
2022-08-17T06:04:25.235Z,1005.28
2022-08-17T06:05:25.223Z,1005.23
2022-08-17T06:06:25.334Z,1005.25
2022-08-17T06:07:25.236Z,1005.27
2022-08-17T06:08:25.191Z,1005.24
2022-08-17T06:09:30.186Z,1005.29
2022-08-17T06:10:25.174Z,1005.30
2022-08-17T06:11:25.166Z,1005.25
2022-08-17T06:12:25.170Z,1005.27
2022-08-17T06:13:25.162Z,1005.30
2022-08-17T06:14:25.126Z,1005.28
2022-08-17T06:15:25.130Z,1005.25
2022-08-17T06:16:31.103Z,1005.25
2022-08-17T06:17:25.109Z,1005.24
2022-08-17T06:18:25.108Z,1005.20
2022-08-17T06:19:25.107Z,1005.23
2022-08-17T06:20:25.070Z,1005.26
2022-08-17T06:21:26.275Z,1005.23
2022-08-17T06:22:25.051Z,1005.25
2022-08-17T06:23:25.040Z,1005.18
2022-08-17T06:24:25.059Z,1005.20
2022-08-17T06:25:25.050Z,1005.19
2022-08-17T06:26:30.431Z,1005.21
2022-08-17T06:27:27.827Z,1005.22
2022-08-17T06:28:24.992Z,1005.18
2022-08-17T06:29:24.991Z,1005.23
2022-08-17T06:30:24.995Z,1005.22
2022-08-17T06:31:24.993Z,1005.25
2022-08-17T06:32:24.975Z,1005.23
2022-08-17T06:33:24.949Z,1005.24
2022-08-17T06:34:25.000Z,1005.23
2022-08-17T06:35:28.842Z,1005.20
2022-08-17T06:36:24.969Z,1005.18
2022-08-17T06:37:24.931Z,1005.22
2022-08-17T06:38:37.735Z,1005.17
2022-08-17T06:39:24.960Z,1005.20
2022-08-17T06:40:24.896Z,1005.21
2022-08-17T06:41:24.881Z,1005.22
2022-08-17T06:42:54.982Z,1005.20
2022-08-17T06:43:24.853Z,1005.23
2022-08-17T06:44:43.682Z,1005.20
2022-08-17T06:45:24.890Z,1005.21
2022-08-17T06:46:25.403Z,1005.20
2022-08-17T06:47:28.531Z,1005.21
2022-08-17T06:48:24.822Z,1005.17
2022-08-17T06:49:24.811Z,1005.13
2022-08-17T06:50:24.805Z,1005.17
2022-08-17T06:51:24.824Z,1005.19
2022-08-17T06:52:46.310Z,1005.15
2022-08-17T06:53:24.781Z,1005.16
2022-08-17T06:54:24.760Z,1005.21
2022-08-17T06:55:24.752Z,1005.14
2022-08-17T06:56:24.755Z,1005.19
2022-08-17T06:57:24.772Z,1005.18
2022-08-17T06:58:29.644Z,1005.20
2022-08-17T06:59:24.722Z,1005.14
2022-08-17T07:00:24.703Z,1005.14
2022-08-17T07:01:24.746Z,1005.15
2022-08-17T07:02:29.421Z,1005.14
2022-08-17T07:03:25.338Z,1005.12
2022-08-17T07:04:24.700Z,1005.13
2022-08-17T07:05:24.663Z,1005.12
2022-08-17T07:06:25.335Z,1005.14
2022-08-17T07:07:24.644Z,1005.16
2022-08-17T07:08:29.980Z,1005.18
2022-08-17T07:09:24.643Z,1005.16
2022-08-17T07:10:24.675Z,1005.19
2022-08-17T07:11:24.647Z,1005.23
2022-08-17T07:12:24.673Z,1005.23
2022-08-17T07:13:25.367Z,1005.25
2022-08-17T07:14:24.585Z,1005.22
2022-08-17T07:15:24.593Z,1005.22
2022-08-17T07:16:24.584Z,1005.24
2022-08-17T07:17:47.029Z,1005.26
2022-08-17T07:18:24.584Z,1005.24
2022-08-17T07:19:24.549Z,1005.23
2022-08-17T07:20:25.367Z,1005.28
2022-08-17T07:21:26.663Z,1005.28
2022-08-17T07:22:24.625Z,1005.29
2022-08-17T07:23:24.536Z,1005.31
2022-08-17T07:24:29.632Z,1005.34
2022-08-17T07:25:24.528Z,1005.33
2022-08-17T07:26:24.559Z,1005.31
2022-08-17T07:27:25.358Z,1005.35
2022-08-17T07:28:24.480Z,1005.36
2022-08-17T07:29:24.487Z,1005.35
2022-08-17T07:30:24.561Z,1005.38
2022-08-17T07:31:24.477Z,1005.39
2022-08-17T07:32:24.585Z,1005.34
2022-08-17T07:33:24.460Z,1005.37
2022-08-17T07:34:24.440Z,1005.38
2022-08-17T07:35:24.454Z,1005.38
2022-08-17T07:36:29.166Z,1005.35
2022-08-17T07:37:24.436Z,1005.36
2022-08-17T07:38:26.963Z,1005.31
2022-08-17T07:39:24.476Z,1005.37
2022-08-17T07:40:24.517Z,1005.32
2022-08-17T07:41:24.394Z,1005.32
2022-08-17T07:42:25.361Z,1005.27
2022-08-17T07:43:24.382Z,1005.30
2022-08-17T07:44:24.391Z,1005.24
2022-08-17T07:45:24.372Z,1005.23
2022-08-17T07:46:24.433Z,1005.29
2022-08-17T07:47:24.409Z,1005.28
2022-08-17T07:48:25.303Z,1005.28
2022-08-17T07:49:24.399Z,1005.28
2022-08-17T07:50:25.930Z,1005.33
2022-08-17T07:51:24.335Z,1005.30
2022-08-17T07:52:50.843Z,1005.27
2022-08-17T07:53:24.347Z,1005.33
2022-08-17T07:54:24.365Z,1005.29
2022-08-17T07:55:24.357Z,1005.32
2022-08-17T07:56:24.872Z,1005.28
2022-08-17T07:57:29.410Z,1005.38
2022-08-17T07:58:24.274Z,1005.36
2022-08-17T07:59:24.274Z,1005.37
2022-08-17T08:00:32.625Z,1005.37
2022-08-17T08:01:24.301Z,1005.37
2022-08-17T08:02:24.539Z,1005.34
2022-08-17T08:03:26.202Z,1005.31
2022-08-17T08:04:43.149Z,1005.29
2022-08-17T08:05:31.709Z,1005.25
2022-08-17T08:06:24.210Z,1005.26
2022-08-17T08:07:24.223Z,1005.23
2022-08-17T08:08:24.249Z,1005.25
2022-08-17T08:09:24.238Z,1005.27
2022-08-17T08:10:24.236Z,1005.23
2022-08-17T08:11:24.183Z,1005.22
2022-08-17T08:12:24.185Z,1005.24
2022-08-17T08:13:24.166Z,1005.29
2022-08-17T08:14:28.421Z,1005.22
2022-08-17T08:15:24.316Z,1005.26
2022-08-17T08:16:24.237Z,1005.27
2022-08-17T08:17:24.167Z,1005.24
2022-08-17T08:18:54.107Z,1005.29
2022-08-17T08:19:24.930Z,1005.25
2022-08-17T08:20:52.649Z,1005.30
2022-08-17T08:21:24.124Z,1005.29
2022-08-17T08:22:24.122Z,1005.27
2022-08-17T08:23:24.134Z,1005.26
2022-08-17T08:24:24.133Z,1005.28
2022-08-17T08:25:24.147Z,1005.25
2022-08-17T08:26:24.079Z,1005.28
2022-08-17T08:27:24.085Z,1005.29
2022-08-17T08:28:24.073Z,1005.31
2022-08-17T08:29:24.059Z,1005.27
2022-08-17T08:30:24.127Z,1005.28
2022-08-17T08:31:24.086Z,1005.29
2022-08-17T08:32:24.085Z,1005.27
2022-08-17T08:33:24.034Z,1005.32
2022-08-17T08:34:58.706Z,1005.33
2022-08-17T08:35:24.023Z,1005.32
2022-08-17T08:36:58.144Z,1005.29
2022-08-17T08:37:33.184Z,1005.36
2022-08-17T08:38:24.061Z,1005.38
2022-08-17T08:39:24.019Z,1005.34
2022-08-17T08:40:24.045Z,1005.35
2022-08-17T08:41:25.191Z,1005.34
2022-08-17T08:42:24.919Z,1005.39
2022-08-17T08:43:23.963Z,1005.38
2022-08-17T08:44:59.528Z,1005.35
2022-08-17T08:45:23.976Z,1005.37
2022-08-17T08:46:23.977Z,1005.38
2022-08-17T08:47:23.998Z,1005.37
2022-08-17T08:48:56.493Z,1005.36
2022-08-17T08:49:45.048Z,1005.36
2022-08-17T08:50:36.890Z,1005.36
2022-08-17T08:51:23.925Z,1005.38
2022-08-17T08:52:23.915Z,1005.40
2022-08-17T08:53:23.906Z,1005.39
2022-08-17T08:54:27.074Z,1005.40
2022-08-17T08:55:23.911Z,1005.38
2022-08-17T08:56:23.918Z,1005.41
2022-08-17T08:57:29.183Z,1005.43
2022-08-17T08:58:31.908Z,1005.40
2022-08-17T08:59:23.866Z,1005.44
2022-08-17T09:00:23.866Z,1005.42
2022-08-17T09:01:23.899Z,1005.43
2022-08-17T09:02:23.890Z,1005.45
2022-08-17T09:03:36.696Z,1005.42
2022-08-17T09:04:25.694Z,1005.43
2022-08-17T09:05:23.827Z,1005.43
2022-08-17T09:06:33.579Z,1005.41
2022-08-17T09:07:23.854Z,1005.46
2022-08-17T09:08:23.815Z,1005.42
2022-08-17T09:09:23.816Z,1005.44
2022-08-17T09:10:24.665Z,1005.44
2022-08-17T09:11:23.785Z,1005.48
2022-08-17T09:12:24.464Z,1005.43
2022-08-17T09:13:23.783Z,1005.40
2022-08-17T09:14:28.475Z,1005.40
2022-08-17T09:15:23.769Z,1005.41
2022-08-17T09:16:23.763Z,1005.38
2022-08-17T09:17:23.811Z,1005.43
2022-08-17T09:19:01.131Z,1005.41
2022-08-17T09:19:23.726Z,1005.41
2022-08-17T09:20:26.430Z,1005.44
2022-08-17T09:21:23.717Z,1005.42
2022-08-17T09:22:23.712Z,1005.48
2022-08-17T09:23:23.715Z,1005.52
2022-08-17T09:24:23.717Z,1005.49
2022-08-17T09:25:23.710Z,1005.47
2022-08-17T09:26:23.723Z,1005.49
2022-08-17T09:27:23.684Z,1005.49
2022-08-17T09:28:23.675Z,1005.49
2022-08-17T09:29:23.658Z,1005.50
2022-08-17T09:30:23.863Z,1005.54
2022-08-17T09:31:23.682Z,1005.54
2022-08-17T09:32:23.656Z,1005.52
2022-08-17T09:33:23.665Z,1005.51
2022-08-17T09:34:29.592Z,1005.57
2022-08-17T09:35:23.632Z,1005.60
2022-08-17T09:36:23.629Z,1005.54
2022-08-17T09:37:23.621Z,1005.60
2022-08-17T09:38:23.606Z,1005.58
2022-08-17T09:39:23.630Z,1005.59
2022-08-17T09:40:23.630Z,1005.60
2022-08-17T09:41:23.643Z,1005.53
2022-08-17T09:42:24.460Z,1005.54
2022-08-17T09:43:23.575Z,1005.52
2022-08-17T09:44:24.034Z,1005.55
2022-08-17T09:45:23.571Z,1005.53
2022-08-17T09:46:23.562Z,1005.61
2022-08-17T09:47:23.561Z,1005.56
2022-08-17T09:48:23.591Z,1005.56
2022-08-17T09:49:25.402Z,1005.54
2022-08-17T09:51:01.649Z,1005.53
2022-08-17T09:51:23.506Z,1005.51
2022-08-17T09:52:23.507Z,1005.54
2022-08-17T09:53:23.536Z,1005.51
2022-08-17T09:54:38.749Z,1005.47
2022-08-17T09:55:23.513Z,1005.54
2022-08-17T09:56:23.474Z,1005.45
2022-08-17T09:57:30.247Z,1005.48
2022-08-17T09:58:23.506Z,1005.49
2022-08-17T09:59:23.449Z,1005.51
2022-08-17T10:00:23.454Z,1005.59
2022-08-17T10:01:23.507Z,1005.55
2022-08-17T10:02:23.479Z,1005.49
2022-08-17T10:03:23.483Z,1005.52
2022-08-17T10:04:29.361Z,1005.49
2022-08-17T10:05:23.415Z,1005.52
2022-08-17T10:06:23.398Z,1005.45
2022-08-17T10:07:23.405Z,1005.45
2022-08-17T10:08:23.538Z,1005.48
2022-08-17T10:09:23.411Z,1005.44
2022-08-17T10:10:23.362Z,1005.50
2022-08-17T10:11:33.255Z,1005.46
2022-08-17T10:12:23.363Z,1005.52
2022-08-17T10:13:24.240Z,1005.44
2022-08-17T10:14:38.036Z,1005.41
2022-08-17T10:15:23.375Z,1005.45
2022-08-17T10:16:23.365Z,1005.47
2022-08-17T10:17:23.313Z,1005.46
2022-08-17T10:18:24.021Z,1005.50
2022-08-17T10:19:23.308Z,1005.47
2022-08-17T10:20:23.299Z,1005.49
2022-08-17T10:21:23.293Z,1005.47
2022-08-17T10:22:34.984Z,1005.54
2022-08-17T10:23:23.291Z,1005.54
2022-08-17T10:24:23.320Z,1005.54
2022-08-17T10:25:26.128Z,1005.52
2022-08-17T10:26:23.335Z,1005.50
2022-08-17T10:27:23.241Z,1005.58
2022-08-17T10:28:28.826Z,1005.62
2022-08-17T10:29:23.245Z,1005.56
2022-08-17T10:30:23.238Z,1005.54
2022-08-17T10:31:38.445Z,1005.65
2022-08-17T10:32:23.205Z,1005.59
2022-08-17T10:33:23.213Z,1005.63
2022-08-17T10:34:23.200Z,1005.62
2022-08-17T10:35:23.209Z,1005.66
2022-08-17T10:36:23.198Z,1005.60
2022-08-17T10:37:23.210Z,1005.61
2022-08-17T10:38:24.519Z,1005.62
2022-08-17T10:39:23.149Z,1005.63
2022-08-17T10:40:23.242Z,1005.63
2022-08-17T10:41:23.139Z,1005.66
2022-08-17T10:42:30.329Z,1005.67
2022-08-17T10:43:23.123Z,1005.64
2022-08-17T10:44:39.095Z,1005.67
2022-08-17T10:45:23.137Z,1005.66
2022-08-17T10:46:31.339Z,1005.69
2022-08-17T10:47:23.099Z,1005.68
2022-08-17T10:48:23.093Z,1005.75
2022-08-17T10:49:23.074Z,1005.77
2022-08-17T10:50:23.076Z,1005.75
2022-08-17T10:51:23.098Z,1005.78
2022-08-17T10:52:24.952Z,1005.78
2022-08-17T10:53:23.042Z,1005.80
2022-08-17T10:54:23.034Z,1005.82
2022-08-17T10:55:23.042Z,1005.86
2022-08-17T10:56:23.023Z,1005.82
2022-08-17T10:57:23.016Z,1005.86
2022-08-17T10:58:23.038Z,1005.89
2022-08-17T10:59:23.047Z,1005.86
2022-08-17T11:00:27.446Z,1005.92
2022-08-17T11:01:23.108Z,1005.87
2022-08-17T11:02:22.967Z,1005.90
2022-08-17T11:03:22.967Z,1005.93
2022-08-17T11:04:22.984Z,1005.97
2022-08-17T11:05:22.969Z,1005.96
2022-08-17T11:06:22.994Z,1006.00
2022-08-17T11:07:22.939Z,1005.96
2022-08-17T11:08:23.000Z,1006.03
2022-08-17T11:09:22.931Z,1006.03
2022-08-17T11:10:22.914Z,1006.06
2022-08-17T11:11:22.921Z,1006.10
2022-08-17T11:12:22.934Z,1006.12
2022-08-17T11:13:22.928Z,1006.17
2022-08-17T11:14:22.884Z,1006.18
2022-08-17T11:15:22.882Z,1006.17
2022-08-17T11:16:22.877Z,1006.19
2022-08-17T11:17:22.858Z,1006.15
2022-08-17T11:18:22.864Z,1006.18
2022-08-17T11:19:22.876Z,1006.16
2022-08-17T11:20:22.859Z,1006.27
2022-08-17T11:21:22.831Z,1006.22
2022-08-17T11:22:22.829Z,1006.22
2022-08-17T11:23:22.826Z,1006.22
2022-08-17T11:24:22.805Z,1006.20
2022-08-17T11:25:23.527Z,1006.23
2022-08-17T11:26:22.799Z,1006.29
2022-08-17T11:27:22.815Z,1006.26
2022-08-17T11:28:22.768Z,1006.28
2022-08-17T11:29:24.633Z,1006.30
2022-08-17T11:30:22.753Z,1006.23
2022-08-17T11:31:22.755Z,1006.27
2022-08-17T11:32:22.757Z,1006.27
2022-08-17T11:33:22.745Z,1006.33
2022-08-17T11:34:22.764Z,1006.32
2022-08-17T11:35:22.769Z,1006.30
2022-08-17T11:36:23.523Z,1006.30
2022-08-17T11:37:22.713Z,1006.36
2022-08-17T11:38:22.696Z,1006.38
2022-08-17T11:39:22.703Z,1006.40
2022-08-17T11:40:22.685Z,1006.33
2022-08-17T11:41:22.713Z,1006.37
2022-08-17T11:42:22.717Z,1006.43
2022-08-17T11:43:22.664Z,1006.46
2022-08-17T11:44:22.657Z,1006.48
2022-08-17T11:45:32.589Z,1006.47
2022-08-17T11:46:22.651Z,1006.56
2022-08-17T11:47:22.655Z,1006.51
2022-08-17T11:48:28.354Z,1006.55
2022-08-17T11:49:25.538Z,1006.57
2022-08-17T11:50:27.597Z,1006.62
2022-08-17T11:51:22.600Z,1006.69
2022-08-17T11:52:22.608Z,1006.60
2022-08-17T11:53:22.596Z,1006.67
2022-08-17T11:54:32.860Z,1006.69
2022-08-17T11:55:35.065Z,1006.62
2022-08-17T11:56:22.609Z,1006.64
2022-08-17T11:57:22.540Z,1006.72
2022-08-17T11:58:22.548Z,1006.73
2022-08-17T11:59:22.537Z,1006.63
2022-08-17T12:00:22.546Z,1006.69
2022-08-17T12:01:22.534Z,1006.69
2022-08-17T12:02:22.541Z,1006.67
2022-08-17T12:03:23.132Z,1006.64
2022-08-17T12:04:22.513Z,1006.65
2022-08-17T12:05:22.473Z,1006.62